sensor_id;sensor_type;location;lat;lon;timestamp;P1;durP1;ratioP1;P2;durP2;ratioP2
42294;SDS011;27947;47.556;18.718;2023-04-09T00:01:55;21.35;;;15.30;;
42294;SDS011;27947;47.556;18.718;2023-04-09T00:04:20;21.63;;;14.38;;
42294;SDS011;27947;47.556;18.718;2023-04-09T00:06:49;20.00;;;14.23;;
42294;SDS011;27947;47.556;18.718;2023-04-09T00:09:14;19.67;;;13.57;;
42294;SDS011;27947;47.556;18.718;2023-04-09T00:11:40;20.10;;;13.65;;
42294;SDS011;27947;47.556;18.718;2023-04-09T00:14:05;18.48;;;12.77;;
42294;SDS011;27947;47.556;18.718;2023-04-09T00:16:31;20.23;;;13.57;;
42294;SDS011;27947;47.556;18.718;2023-04-09T00:18:56;16.92;;;12.35;;
42294;SDS011;27947;47.556;18.718;2023-04-09T00:21:22;19.38;;;13.15;;
42294;SDS011;27947;47.556;18.718;2023-04-09T00:23:47;17.73;;;12.45;;
42294;SDS011;27947;47.556;18.718;2023-04-09T00:26:13;18.27;;;12.63;;
42294;SDS011;27947;47.556;18.718;2023-04-09T00:28:38;18.98;;;12.88;;
42294;SDS011;27947;47.556;18.718;2023-04-09T00:31:04;18.25;;;12.80;;
42294;SDS011;27947;47.556;18.718;2023-04-09T00:33:30;20.15;;;13.50;;
42294;SDS011;27947;47.556;18.718;2023-04-09T00:35:55;21.70;;;14.52;;
42294;SDS011;27947;47.556;18.718;2023-04-09T00:38:20;24.65;;;16.38;;
42294;SDS011;27947;47.556;18.718;2023-04-09T00:40:49;23.05;;;15.60;;
42294;SDS011;27947;47.556;18.718;2023-04-09T00:43:15;23.25;;;15.93;;
42294;SDS011;27947;47.556;18.718;2023-04-09T00:45:40;21.13;;;14.55;;
42294;SDS011;27947;47.556;18.718;2023-04-09T00:48:06;19.35;;;13.98;;
42294;SDS011;27947;47.556;18.718;2023-04-09T00:50:31;24.58;;;16.05;;
42294;SDS011;27947;47.556;18.718;2023-04-09T00:52:57;19.60;;;14.00;;
42294;SDS011;27947;47.556;18.718;2023-04-09T00:55:22;20.90;;;13.80;;
42294;SDS011;27947;47.556;18.718;2023-04-09T00:57:48;19.98;;;13.15;;
42294;SDS011;27947;47.556;18.718;2023-04-09T01:00:13;23.95;;;16.15;;
42294;SDS011;27947;47.556;18.718;2023-04-09T01:02:38;24.63;;;16.75;;
42294;SDS011;27947;47.556;18.718;2023-04-09T01:05:04;27.40;;;17.27;;
42294;SDS011;27947;47.556;18.718;2023-04-09T01:07:37;27.50;;;17.33;;
42294;SDS011;27947;47.556;18.718;2023-04-09T01:12:44;26.30;;;16.92;;
42294;SDS011;27947;47.556;18.718;2023-04-09T01:15:16;26.13;;;16.90;;
42294;SDS011;27947;47.556;18.718;2023-04-09T01:17:47;24.55;;;16.70;;
42294;SDS011;27947;47.556;18.718;2023-04-09T01:20:28;25.50;;;16.90;;
42294;SDS011;27947;47.556;18.718;2023-04-09T01:30:32;24.90;;;16.33;;
42294;SDS011;27947;47.556;18.718;2023-04-09T01:32:58;23.88;;;16.08;;
42294;SDS011;27947;47.556;18.718;2023-04-09T01:35:24;23.52;;;15.52;;
42294;SDS011;27947;47.556;18.718;2023-04-09T01:37:50;22.70;;;15.50;;
42294;SDS011;27947;47.556;18.718;2023-04-09T01:40:16;24.27;;;16.23;;
42294;SDS011;27947;47.556;18.718;2023-04-09T01:42:41;25.15;;;16.73;;
42294;SDS011;27947;47.556;18.718;2023-04-09T01:45:07;28.40;;;18.23;;
42294;SDS011;27947;47.556;18.718;2023-04-09T01:47:34;26.75;;;17.88;;
42294;SDS011;27947;47.556;18.718;2023-04-09T01:50:00;26.23;;;18.08;;
42294;SDS011;27947;47.556;18.718;2023-04-09T01:52:26;25.85;;;17.23;;
42294;SDS011;27947;47.556;18.718;2023-04-09T01:54:51;25.92;;;16.35;;
42294;SDS011;27947;47.556;18.718;2023-04-09T01:57:17;23.23;;;15.68;;
42294;SDS011;27947;47.556;18.718;2023-04-09T01:59:42;25.98;;;16.88;;
42294;SDS011;27947;47.556;18.718;2023-04-09T02:02:13;23.63;;;16.33;;
42294;SDS011;27947;47.556;18.718;2023-04-09T02:04:42;26.40;;;16.58;;
42294;SDS011;27947;47.556;18.718;2023-04-09T02:07:16;26.15;;;16.92;;
42294;SDS011;27947;47.556;18.718;2023-04-09T02:09:42;27.88;;;17.95;;
42294;SDS011;27947;47.556;18.718;2023-04-09T02:12:10;25.05;;;16.75;;
42294;SDS011;27947;47.556;18.718;2023-04-09T02:14:36;23.48;;;16.23;;
42294;SDS011;27947;47.556;18.718;2023-04-09T02:17:03;27.08;;;17.73;;
42294;SDS011;27947;47.556;18.718;2023-04-09T02:19:44;25.27;;;15.98;;
42294;SDS011;27947;47.556;18.718;2023-04-09T02:22:12;25.80;;;16.42;;
42294;SDS011;27947;47.556;18.718;2023-04-09T02:24:37;24.08;;;16.27;;
42294;SDS011;27947;47.556;18.718;2023-04-09T02:27:04;25.45;;;16.73;;
42294;SDS011;27947;47.556;18.718;2023-04-09T02:29:30;25.05;;;15.82;;
42294;SDS011;27947;47.556;18.718;2023-04-09T02:31:55;26.77;;;17.45;;
42294;SDS011;27947;47.556;18.718;2023-04-09T02:34:21;27.45;;;16.85;;
42294;SDS011;27947;47.556;18.718;2023-04-09T02:36:47;27.73;;;18.02;;
42294;SDS011;27947;47.556;18.718;2023-04-09T02:39:12;28.42;;;17.85;;
42294;SDS011;27947;47.556;18.718;2023-04-09T02:41:38;26.70;;;18.02;;
42294;SDS011;27947;47.556;18.718;2023-04-09T02:44:03;28.30;;;17.88;;
42294;SDS011;27947;47.556;18.718;2023-04-09T02:46:29;26.52;;;17.48;;
42294;SDS011;27947;47.556;18.718;2023-04-09T02:48:54;27.52;;;17.60;;
42294;SDS011;27947;47.556;18.718;2023-04-09T02:51:19;27.45;;;17.27;;
42294;SDS011;27947;47.556;18.718;2023-04-09T02:53:45;25.20;;;17.48;;
42294;SDS011;27947;47.556;18.718;2023-04-09T02:56:11;25.70;;;17.60;;
42294;SDS011;27947;47.556;18.718;2023-04-09T02:58:36;28.25;;;18.15;;
42294;SDS011;27947;47.556;18.718;2023-04-09T03:01:02;29.08;;;18.95;;
42294;SDS011;27947;47.556;18.718;2023-04-09T03:03:27;27.45;;;17.95;;
42294;SDS011;27947;47.556;18.718;2023-04-09T03:05:53;28.17;;;17.77;;
42294;SDS011;27947;47.556;18.718;2023-04-09T03:08:18;27.42;;;17.80;;
42294;SDS011;27947;47.556;18.718;2023-04-09T03:10:44;29.15;;;18.58;;
42294;SDS011;27947;47.556;18.718;2023-04-09T03:13:09;31.13;;;19.35;;
42294;SDS011;27947;47.556;18.718;2023-04-09T03:15:34;27.40;;;17.88;;
42294;SDS011;27947;47.556;18.718;2023-04-09T03:18:00;27.67;;;18.42;;
42294;SDS011;27947;47.556;18.718;2023-04-09T03:20:25;30.10;;;19.40;;
42294;SDS011;27947;47.556;18.718;2023-04-09T03:22:51;27.75;;;18.23;;
42294;SDS011;27947;47.556;18.718;2023-04-09T03:25:27;30.52;;;19.10;;
42294;SDS011;27947;47.556;18.718;2023-04-09T03:27:53;29.90;;;18.45;;
42294;SDS011;27947;47.556;18.718;2023-04-09T03:30:29;29.73;;;19.60;;
42294;SDS011;27947;47.556;18.718;2023-04-09T03:32:56;27.27;;;18.70;;
42294;SDS011;27947;47.556;18.718;2023-04-09T03:35:22;27.55;;;18.73;;
42294;SDS011;27947;47.556;18.718;2023-04-09T03:37:48;29.00;;;19.40;;
42294;SDS011;27947;47.556;18.718;2023-04-09T03:40:16;27.17;;;17.75;;
42294;SDS011;27947;47.556;18.718;2023-04-09T03:42:42;27.25;;;18.05;;
42294;SDS011;27947;47.556;18.718;2023-04-09T03:45:09;30.50;;;19.80;;
42294;SDS011;27947;47.556;18.718;2023-04-09T03:47:39;29.33;;;19.42;;
42294;SDS011;27947;47.556;18.718;2023-04-09T03:50:05;32.42;;;20.85;;
42294;SDS011;27947;47.556;18.718;2023-04-09T03:52:43;31.48;;;19.70;;
42294;SDS011;27947;47.556;18.718;2023-04-09T03:55:08;31.00;;;19.77;;
42294;SDS011;27947;47.556;18.718;2023-04-09T03:57:34;32.13;;;20.25;;
42294;SDS011;27947;47.556;18.718;2023-04-09T04:00:00;30.90;;;19.58;;
42294;SDS011;27947;47.556;18.718;2023-04-09T04:02:26;31.15;;;20.48;;
42294;SDS011;27947;47.556;18.718;2023-04-09T04:05:01;31.38;;;19.95;;
42294;SDS011;27947;47.556;18.718;2023-04-09T04:07:31;29.92;;;20.08;;
42294;SDS011;27947;47.556;18.718;2023-04-09T04:10:05;28.95;;;19.00;;
42294;SDS011;27947;47.556;18.718;2023-04-09T04:12:32;33.05;;;20.98;;
42294;SDS011;27947;47.556;18.718;2023-04-09T04:15:07;33.58;;;20.58;;
42294;SDS011;27947;47.556;18.718;2023-04-09T04:17:42;30.80;;;20.40;;
42294;SDS011;27947;47.556;18.718;2023-04-09T04:20:16;33.08;;;20.75;;
42294;SDS011;27947;47.556;18.718;2023-04-09T04:22:53;32.22;;;20.67;;
42294;SDS011;27947;47.556;18.718;2023-04-09T04:25:19;33.38;;;20.75;;
42294;SDS011;27947;47.556;18.718;2023-04-09T04:27:46;28.88;;;19.42;;
42294;SDS011;27947;47.556;18.718;2023-04-09T04:30:13;31.40;;;19.85;;
42294;SDS011;27947;47.556;18.718;2023-04-09T04:32:54;32.00;;;20.38;;
42294;SDS011;27947;47.556;18.718;2023-04-09T04:35:20;33.47;;;21.40;;
42294;SDS011;27947;47.556;18.718;2023-04-09T04:37:50;32.80;;;20.98;;
42294;SDS011;27947;47.556;18.718;2023-04-09T04:40:16;33.60;;;21.85;;
42294;SDS011;27947;47.556;18.718;2023-04-09T04:42:42;33.05;;;20.85;;
42294;SDS011;27947;47.556;18.718;2023-04-09T04:45:12;30.55;;;19.60;;
42294;SDS011;27947;47.556;18.718;2023-04-09T04:48:00;30.15;;;19.35;;
42294;SDS011;27947;47.556;18.718;2023-04-09T04:50:26;29.92;;;19.42;;
42294;SDS011;27947;47.556;18.718;2023-04-09T04:52:56;27.52;;;18.90;;
42294;SDS011;27947;47.556;18.718;2023-04-09T04:55:26;28.40;;;18.45;;
42294;SDS011;27947;47.556;18.718;2023-04-09T04:57:51;25.63;;;17.65;;
42294;SDS011;27947;47.556;18.718;2023-04-09T05:00:19;25.75;;;17.20;;
42294;SDS011;27947;47.556;18.718;2023-04-09T05:02:46;26.95;;;17.13;;
42294;SDS011;27947;47.556;18.718;2023-04-09T05:05:17;28.65;;;18.55;;
42294;SDS011;27947;47.556;18.718;2023-04-09T05:07:48;30.60;;;19.75;;
42294;SDS011;27947;47.556;18.718;2023-04-09T05:10:13;31.48;;;19.92;;
42294;SDS011;27947;47.556;18.718;2023-04-09T05:12:41;32.17;;;20.08;;
42294;SDS011;27947;47.556;18.718;2023-04-09T05:15:07;29.85;;;19.70;;
42294;SDS011;27947;47.556;18.718;2023-04-09T05:17:34;28.17;;;18.63;;
42294;SDS011;27947;47.556;18.718;2023-04-09T05:20:00;28.02;;;19.23;;
42294;SDS011;27947;47.556;18.718;2023-04-09T05:22:34;30.17;;;19.42;;
42294;SDS011;27947;47.556;18.718;2023-04-09T05:25:00;30.20;;;18.58;;
42294;SDS011;27947;47.556;18.718;2023-04-09T05:27:26;29.05;;;18.25;;
42294;SDS011;27947;47.556;18.718;2023-04-09T05:29:57;29.25;;;18.17;;
42294;SDS011;27947;47.556;18.718;2023-04-09T05:32:22;29.05;;;18.48;;
42294;SDS011;27947;47.556;18.718;2023-04-09T05:34:48;35.50;;;22.38;;
42294;SDS011;27947;47.556;18.718;2023-04-09T05:37:13;36.72;;;23.08;;
42294;SDS011;27947;47.556;18.718;2023-04-09T05:39:43;38.45;;;23.45;;
42294;SDS011;27947;47.556;18.718;2023-04-09T05:42:08;35.72;;;23.10;;
42294;SDS011;27947;47.556;18.718;2023-04-09T05:44:47;51.00;;;28.88;;
42294;SDS011;27947;47.556;18.718;2023-04-09T05:47:17;44.05;;;25.92;;
42294;SDS011;27947;47.556;18.718;2023-04-09T05:50:01;42.03;;;25.17;;
42294;SDS011;27947;47.556;18.718;2023-04-09T05:52:26;38.10;;;22.92;;
42294;SDS011;27947;47.556;18.718;2023-04-09T05:54:53;35.15;;;22.77;;
42294;SDS011;27947;47.556;18.718;2023-04-09T05:57:24;25.95;;;16.65;;
42294;SDS011;27947;47.556;18.718;2023-04-09T05:59:56;24.30;;;16.38;;
42294;SDS011;27947;47.556;18.718;2023-04-09T06:02:21;25.10;;;16.35;;
42294;SDS011;27947;47.556;18.718;2023-04-09T06:04:47;23.33;;;15.15;;
42294;SDS011;27947;47.556;18.718;2023-04-09T06:07:14;24.55;;;16.27;;
42294;SDS011;27947;47.556;18.718;2023-04-09T06:09:40;27.20;;;17.92;;
42294;SDS011;27947;47.556;18.718;2023-04-09T06:12:08;29.10;;;19.17;;
42294;SDS011;27947;47.556;18.718;2023-04-09T06:14:33;32.45;;;20.88;;
42294;SDS011;27947;47.556;18.718;2023-04-09T06:16:58;31.00;;;19.20;;
42294;SDS011;27947;47.556;18.718;2023-04-09T06:19:24;31.98;;;18.98;;
42294;SDS011;27947;47.556;18.718;2023-04-09T06:21:50;33.47;;;20.52;;
42294;SDS011;27947;47.556;18.718;2023-04-09T06:24:15;30.73;;;19.67;;
42294;SDS011;27947;47.556;18.718;2023-04-09T06:26:40;29.10;;;18.92;;
42294;SDS011;27947;47.556;18.718;2023-04-09T06:29:06;30.95;;;19.60;;
42294;SDS011;27947;47.556;18.718;2023-04-09T06:31:31;28.98;;;19.00;;
42294;SDS011;27947;47.556;18.718;2023-04-09T06:33:57;31.63;;;19.73;;
42294;SDS011;27947;47.556;18.718;2023-04-09T06:36:23;29.15;;;18.52;;
42294;SDS011;27947;47.556;18.718;2023-04-09T06:38:48;29.40;;;18.73;;
42294;SDS011;27947;47.556;18.718;2023-04-09T06:41:13;30.08;;;19.00;;
42294;SDS011;27947;47.556;18.718;2023-04-09T06:43:39;30.27;;;19.38;;
42294;SDS011;27947;47.556;18.718;2023-04-09T06:46:04;29.85;;;20.25;;
42294;SDS011;27947;47.556;18.718;2023-04-09T06:48:30;29.85;;;19.65;;
42294;SDS011;27947;47.556;18.718;2023-04-09T06:50:55;34.97;;;19.70;;
42294;SDS011;27947;47.556;18.718;2023-04-09T06:53:21;31.30;;;20.52;;
42294;SDS011;27947;47.556;18.718;2023-04-09T06:55:46;29.85;;;19.95;;
42294;SDS011;27947;47.556;18.718;2023-04-09T06:58:11;31.58;;;19.33;;
42294;SDS011;27947;47.556;18.718;2023-04-09T07:00:37;29.35;;;17.92;;
42294;SDS011;27947;47.556;18.718;2023-04-09T07:03:02;25.70;;;17.05;;
42294;SDS011;27947;47.556;18.718;2023-04-09T07:05:28;26.10;;;16.48;;
42294;SDS011;27947;47.556;18.718;2023-04-09T07:07:54;25.20;;;16.92;;
42294;SDS011;27947;47.556;18.718;2023-04-09T07:10:20;20.90;;;14.10;;
42294;SDS011;27947;47.556;18.718;2023-04-09T07:12:45;25.33;;;14.00;;
42294;SDS011;27947;47.556;18.718;2023-04-09T07:15:10;22.48;;;14.55;;
42294;SDS011;27947;47.556;18.718;2023-04-09T07:17:36;21.27;;;14.38;;
42294;SDS011;27947;47.556;18.718;2023-04-09T07:20:01;20.77;;;13.38;;
42294;SDS011;27947;47.556;18.718;2023-04-09T07:22:27;19.83;;;13.02;;
42294;SDS011;27947;47.556;18.718;2023-04-09T07:24:53;15.27;;;10.45;;
42294;SDS011;27947;47.556;18.718;2023-04-09T07:27:22;16.02;;;11.10;;
42294;SDS011;27947;47.556;18.718;2023-04-09T07:29:48;17.42;;;11.63;;
42294;SDS011;27947;47.556;18.718;2023-04-09T07:32:13;20.23;;;13.18;;
42294;SDS011;27947;47.556;18.718;2023-04-09T07:34:40;18.20;;;12.55;;
42294;SDS011;27947;47.556;18.718;2023-04-09T07:37:05;19.17;;;13.50;;
42294;SDS011;27947;47.556;18.718;2023-04-09T07:39:30;17.80;;;11.73;;
42294;SDS011;27947;47.556;18.718;2023-04-09T07:41:56;16.60;;;11.50;;
42294;SDS011;27947;47.556;18.718;2023-04-09T07:44:21;15.13;;;10.65;;
42294;SDS011;27947;47.556;18.718;2023-04-09T07:46:47;16.52;;;11.10;;
42294;SDS011;27947;47.556;18.718;2023-04-09T07:49:12;16.95;;;11.55;;
42294;SDS011;27947;47.556;18.718;2023-04-09T07:51:38;17.73;;;11.75;;
42294;SDS011;27947;47.556;18.718;2023-04-09T07:54:03;20.73;;;13.02;;
42294;SDS011;27947;47.556;18.718;2023-04-09T07:56:29;16.65;;;11.48;;
42294;SDS011;27947;47.556;18.718;2023-04-09T07:58:54;17.75;;;11.68;;
42294;SDS011;27947;47.556;18.718;2023-04-09T08:01:20;17.48;;;10.65;;
42294;SDS011;27947;47.556;18.718;2023-04-09T08:03:48;15.77;;;11.40;;
42294;SDS011;27947;47.556;18.718;2023-04-09T08:06:14;16.65;;;11.50;;
42294;SDS011;27947;47.556;18.718;2023-04-09T08:08:39;18.15;;;12.52;;
42294;SDS011;27947;47.556;18.718;2023-04-09T08:11:05;18.42;;;12.43;;
42294;SDS011;27947;47.556;18.718;2023-04-09T08:13:31;19.45;;;12.50;;
42294;SDS011;27947;47.556;18.718;2023-04-09T08:15:58;18.27;;;12.23;;
42294;SDS011;27947;47.556;18.718;2023-04-09T08:18:24;17.80;;;12.15;;
42294;SDS011;27947;47.556;18.718;2023-04-09T08:20:49;20.13;;;12.13;;
42294;SDS011;27947;47.556;18.718;2023-04-09T08:23:15;18.83;;;13.35;;
42294;SDS011;27947;47.556;18.718;2023-04-09T08:25:40;20.60;;;12.70;;
42294;SDS011;27947;47.556;18.718;2023-04-09T08:28:06;18.38;;;11.98;;
42294;SDS011;27947;47.556;18.718;2023-04-09T08:30:32;19.48;;;13.13;;
42294;SDS011;27947;47.556;18.718;2023-04-09T08:32:58;16.70;;;10.90;;
42294;SDS011;27947;47.556;18.718;2023-04-09T08:35:24;17.35;;;11.30;;
42294;SDS011;27947;47.556;18.718;2023-04-09T08:37:50;16.38;;;10.82;;
42294;SDS011;27947;47.556;18.718;2023-04-09T08:40:15;16.70;;;10.77;;
42294;SDS011;27947;47.556;18.718;2023-04-09T08:42:43;17.65;;;11.00;;
42294;SDS011;27947;47.556;18.718;2023-04-09T08:45:09;16.98;;;11.02;;
42294;SDS011;27947;47.556;18.718;2023-04-09T08:47:35;15.52;;;10.15;;
42294;SDS011;27947;47.556;18.718;2023-04-09T08:50:01;16.73;;;10.60;;
42294;SDS011;27947;47.556;18.718;2023-04-09T08:52:33;15.40;;;10.13;;
42294;SDS011;27947;47.556;18.718;2023-04-09T08:54:59;15.55;;;10.23;;
42294;SDS011;27947;47.556;18.718;2023-04-09T08:57:25;17.25;;;11.75;;
42294;SDS011;27947;47.556;18.718;2023-04-09T08:59:50;16.77;;;11.20;;
42294;SDS011;27947;47.556;18.718;2023-04-09T09:02:16;18.33;;;11.52;;
42294;SDS011;27947;47.556;18.718;2023-04-09T09:04:45;11.38;;;7.75;;
42294;SDS011;27947;47.556;18.718;2023-04-09T09:07:11;12.63;;;8.85;;
42294;SDS011;27947;47.556;18.718;2023-04-09T09:09:49;15.00;;;10.18;;
42294;SDS011;27947;47.556;18.718;2023-04-09T09:12:29;17.08;;;9.73;;
42294;SDS011;27947;47.556;18.718;2023-04-09T09:14:55;15.85;;;10.82;;
42294;SDS011;27947;47.556;18.718;2023-04-09T09:17:20;17.23;;;11.30;;
42294;SDS011;27947;47.556;18.718;2023-04-09T09:19:45;17.83;;;10.98;;
42294;SDS011;27947;47.556;18.718;2023-04-09T09:22:11;15.68;;;10.93;;
42294;SDS011;27947;47.556;18.718;2023-04-09T09:24:50;15.45;;;10.50;;
42294;SDS011;27947;47.556;18.718;2023-04-09T09:27:34;20.13;;;13.45;;
42294;SDS011;27947;47.556;18.718;2023-04-09T09:30:07;16.08;;;9.65;;
42294;SDS011;27947;47.556;18.718;2023-04-09T09:32:32;15.70;;;9.98;;
42294;SDS011;27947;47.556;18.718;2023-04-09T09:35:01;15.18;;;10.23;;
42294;SDS011;27947;47.556;18.718;2023-04-09T09:37:27;16.98;;;10.75;;
42294;SDS011;27947;47.556;18.718;2023-04-09T09:39:53;16.80;;;10.65;;
42294;SDS011;27947;47.556;18.718;2023-04-09T09:42:18;16.38;;;10.10;;
42294;SDS011;27947;47.556;18.718;2023-04-09T09:44:43;15.30;;;10.93;;
42294;SDS011;27947;47.556;18.718;2023-04-09T09:47:09;15.57;;;10.48;;
42294;SDS011;27947;47.556;18.718;2023-04-09T09:49:37;13.40;;;9.48;;
42294;SDS011;27947;47.556;18.718;2023-04-09T09:52:02;14.45;;;9.30;;
42294;SDS011;27947;47.556;18.718;2023-04-09T09:54:33;13.98;;;9.75;;
42294;SDS011;27947;47.556;18.718;2023-04-09T09:57:03;14.13;;;9.55;;
42294;SDS011;27947;47.556;18.718;2023-04-09T09:59:31;12.98;;;9.48;;
42294;SDS011;27947;47.556;18.718;2023-04-09T10:01:59;13.90;;;9.75;;
42294;SDS011;27947;47.556;18.718;2023-04-09T10:04:25;12.75;;;9.13;;
42294;SDS011;27947;47.556;18.718;2023-04-09T10:06:52;13.93;;;9.52;;
42294;SDS011;27947;47.556;18.718;2023-04-09T10:09:17;14.07;;;9.45;;
42294;SDS011;27947;47.556;18.718;2023-04-09T10:11:45;12.30;;;8.90;;
42294;SDS011;27947;47.556;18.718;2023-04-09T10:14:12;13.55;;;9.27;;
42294;SDS011;27947;47.556;18.718;2023-04-09T10:16:38;13.05;;;9.30;;
42294;SDS011;27947;47.556;18.718;2023-04-09T10:19:04;14.48;;;9.13;;
42294;SDS011;27947;47.556;18.718;2023-04-09T10:23:57;14.30;;;8.98;;
42294;SDS011;27947;47.556;18.718;2023-04-09T10:26:24;12.95;;;8.40;;
42294;SDS011;27947;47.556;18.718;2023-04-09T10:29:08;15.25;;;9.50;;
42294;SDS011;27947;47.556;18.718;2023-04-09T10:31:46;13.02;;;9.50;;
42294;SDS011;27947;47.556;18.718;2023-04-09T10:34:16;13.75;;;9.30;;
42294;SDS011;27947;47.556;18.718;2023-04-09T10:36:42;16.98;;;9.90;;
42294;SDS011;27947;47.556;18.718;2023-04-09T10:39:14;11.45;;;8.77;;
42294;SDS011;27947;47.556;18.718;2023-04-09T10:41:39;14.00;;;9.13;;
42294;SDS011;27947;47.556;18.718;2023-04-09T10:44:06;11.88;;;8.02;;
42294;SDS011;27947;47.556;18.718;2023-04-09T10:46:43;11.73;;;8.00;;
42294;SDS011;27947;47.556;18.718;2023-04-09T10:49:22;13.27;;;8.60;;
42294;SDS011;27947;47.556;18.718;2023-04-09T10:51:52;11.48;;;8.27;;
42294;SDS011;27947;47.556;18.718;2023-04-09T10:59:51;14.90;;;9.15;;
42294;SDS011;27947;47.556;18.718;2023-04-09T11:07:16;10.35;;;7.60;;
42294;SDS011;27947;47.556;18.718;2023-04-09T11:09:43;9.90;;;6.97;;
42294;SDS011;27947;47.556;18.718;2023-04-09T11:12:12;9.85;;;6.95;;
42294;SDS011;27947;47.556;18.718;2023-04-09T11:14:37;11.65;;;6.95;;
42294;SDS011;27947;47.556;18.718;2023-04-09T11:17:02;9.43;;;6.00;;
42294;SDS011;27947;47.556;18.718;2023-04-09T11:19:28;11.43;;;6.50;;
42294;SDS011;27947;47.556;18.718;2023-04-09T11:21:53;7.68;;;5.35;;
42294;SDS011;27947;47.556;18.718;2023-04-09T11:24:19;7.65;;;5.30;;
42294;SDS011;27947;47.556;18.718;2023-04-09T11:26:44;8.95;;;5.78;;
42294;SDS011;27947;47.556;18.718;2023-04-09T11:29:11;7.22;;;5.40;;
42294;SDS011;27947;47.556;18.718;2023-04-09T11:31:37;7.53;;;4.93;;
42294;SDS011;27947;47.556;18.718;2023-04-09T11:34:02;5.65;;;4.53;;
42294;SDS011;27947;47.556;18.718;2023-04-09T11:36:27;10.07;;;6.43;;
42294;SDS011;27947;47.556;18.718;2023-04-09T11:38:56;7.47;;;5.32;;
42294;SDS011;27947;47.556;18.718;2023-04-09T11:41:37;9.30;;;5.88;;
42294;SDS011;27947;47.556;18.718;2023-04-09T11:44:02;8.60;;;6.05;;
42294;SDS011;27947;47.556;18.718;2023-04-09T11:46:29;9.90;;;6.38;;
42294;SDS011;27947;47.556;18.718;2023-04-09T11:48:54;9.68;;;6.38;;
42294;SDS011;27947;47.556;18.718;2023-04-09T11:51:20;8.38;;;6.10;;
42294;SDS011;27947;47.556;18.718;2023-04-09T11:53:46;8.32;;;6.07;;
42294;SDS011;27947;47.556;18.718;2023-04-09T11:56:12;7.57;;;5.45;;
42294;SDS011;27947;47.556;18.718;2023-04-09T11:58:37;6.85;;;5.32;;
42294;SDS011;27947;47.556;18.718;2023-04-09T12:01:02;8.88;;;6.30;;
42294;SDS011;27947;47.556;18.718;2023-04-09T12:03:29;8.75;;;6.20;;
42294;SDS011;27947;47.556;18.718;2023-04-09T12:05:55;10.27;;;6.32;;
42294;SDS011;27947;47.556;18.718;2023-04-09T12:08:23;8.70;;;6.35;;
42294;SDS011;27947;47.556;18.718;2023-04-09T12:10:49;9.88;;;6.72;;
42294;SDS011;27947;47.556;18.718;2023-04-09T12:13:15;8.73;;;6.32;;
42294;SDS011;27947;47.556;18.718;2023-04-09T12:15:41;8.82;;;6.43;;
42294;SDS011;27947;47.556;18.718;2023-04-09T12:18:11;10.50;;;6.40;;
42294;SDS011;27947;47.556;18.718;2023-04-09T12:20:37;9.38;;;6.35;;
42294;SDS011;27947;47.556;18.718;2023-04-09T12:23:07;9.85;;;6.55;;
42294;SDS011;27947;47.556;18.718;2023-04-09T12:25:43;7.65;;;5.78;;
42294;SDS011;27947;47.556;18.718;2023-04-09T12:28:12;10.50;;;6.63;;
42294;SDS011;27947;47.556;18.718;2023-04-09T12:30:39;10.27;;;6.80;;
42294;SDS011;27947;47.556;18.718;2023-04-09T12:33:05;10.18;;;6.57;;
42294;SDS011;27947;47.556;18.718;2023-04-09T12:35:31;9.02;;;6.28;;
42294;SDS011;27947;47.556;18.718;2023-04-09T12:37:56;7.65;;;5.68;;
42294;SDS011;27947;47.556;18.718;2023-04-09T12:40:23;9.38;;;5.97;;
42294;SDS011;27947;47.556;18.718;2023-04-09T12:42:49;7.20;;;5.35;;
42294;SDS011;27947;47.556;18.718;2023-04-09T12:45:15;8.63;;;5.85;;
42294;SDS011;27947;47.556;18.718;2023-04-09T12:47:41;8.10;;;6.03;;
42294;SDS011;27947;47.556;18.718;2023-04-09T12:50:07;8.65;;;6.07;;
42294;SDS011;27947;47.556;18.718;2023-04-09T12:52:33;9.68;;;7.05;;
42294;SDS011;27947;47.556;18.718;2023-04-09T12:54:59;9.25;;;6.50;;
42294;SDS011;27947;47.556;18.718;2023-04-09T12:57:24;9.23;;;6.15;;
42294;SDS011;27947;47.556;18.718;2023-04-09T12:59:50;8.13;;;5.75;;
42294;SDS011;27947;47.556;18.718;2023-04-09T13:02:15;6.85;;;5.38;;
42294;SDS011;27947;47.556;18.718;2023-04-09T13:04:40;7.50;;;4.97;;
42294;SDS011;27947;47.556;18.718;2023-04-09T13:07:06;7.45;;;4.82;;
42294;SDS011;27947;47.556;18.718;2023-04-09T13:09:32;6.10;;;4.57;;
42294;SDS011;27947;47.556;18.718;2023-04-09T13:11:59;7.75;;;4.60;;
42294;SDS011;27947;47.556;18.718;2023-04-09T13:14:24;7.82;;;5.72;;
42294;SDS011;27947;47.556;18.718;2023-04-09T13:16:50;7.45;;;5.47;;
42294;SDS011;27947;47.556;18.718;2023-04-09T13:19:16;9.80;;;5.93;;
42294;SDS011;27947;47.556;18.718;2023-04-09T13:21:42;7.20;;;5.53;;
42294;SDS011;27947;47.556;18.718;2023-04-09T13:24:08;7.55;;;5.45;;
42294;SDS011;27947;47.556;18.718;2023-04-09T13:26:33;7.68;;;5.30;;
42294;SDS011;27947;47.556;18.718;2023-04-09T13:28:59;7.70;;;5.28;;
42294;SDS011;27947;47.556;18.718;2023-04-09T13:31:24;7.18;;;5.07;;
42294;SDS011;27947;47.556;18.718;2023-04-09T13:33:49;6.72;;;5.00;;
42294;SDS011;27947;47.556;18.718;2023-04-09T13:36:15;7.03;;;4.88;;
42294;SDS011;27947;47.556;18.718;2023-04-09T13:38:40;6.43;;;4.60;;
42294;SDS011;27947;47.556;18.718;2023-04-09T13:41:05;8.05;;;5.85;;
42294;SDS011;27947;47.556;18.718;2023-04-09T13:43:31;6.82;;;5.13;;
42294;SDS011;27947;47.556;18.718;2023-04-09T13:45:56;8.05;;;5.93;;
42294;SDS011;27947;47.556;18.718;2023-04-09T13:48:23;8.35;;;5.75;;
42294;SDS011;27947;47.556;18.718;2023-04-09T13:50:49;8.77;;;5.78;;
42294;SDS011;27947;47.556;18.718;2023-04-09T13:53:14;8.07;;;5.70;;
42294;SDS011;27947;47.556;18.718;2023-04-09T13:55:41;8.43;;;6.25;;
42294;SDS011;27947;47.556;18.718;2023-04-09T13:58:06;10.00;;;6.93;;
42294;SDS011;27947;47.556;18.718;2023-04-09T14:00:31;10.05;;;6.72;;
42294;SDS011;27947;47.556;18.718;2023-04-09T14:02:57;9.13;;;6.40;;
42294;SDS011;27947;47.556;18.718;2023-04-09T14:05:23;8.98;;;6.13;;
42294;SDS011;27947;47.556;18.718;2023-04-09T14:07:48;9.35;;;6.45;;
42294;SDS011;27947;47.556;18.718;2023-04-09T14:10:13;9.32;;;6.18;;
42294;SDS011;27947;47.556;18.718;2023-04-09T14:12:40;8.90;;;6.03;;
42294;SDS011;27947;47.556;18.718;2023-04-09T14:15:05;10.10;;;7.13;;
42294;SDS011;27947;47.556;18.718;2023-04-09T14:17:31;10.60;;;7.43;;
42294;SDS011;27947;47.556;18.718;2023-04-09T14:19:56;11.25;;;7.78;;
42294;SDS011;27947;47.556;18.718;2023-04-09T14:22:23;9.70;;;6.95;;
42294;SDS011;27947;47.556;18.718;2023-04-09T14:24:48;9.65;;;7.10;;
42294;SDS011;27947;47.556;18.718;2023-04-09T14:27:14;13.25;;;8.73;;
42294;SDS011;27947;47.556;18.718;2023-04-09T14:29:39;10.63;;;7.10;;
42294;SDS011;27947;47.556;18.718;2023-04-09T14:32:05;7.53;;;5.95;;
42294;SDS011;27947;47.556;18.718;2023-04-09T14:34:31;9.25;;;6.68;;
42294;SDS011;27947;47.556;18.718;2023-04-09T14:36:57;10.20;;;6.65;;
42294;SDS011;27947;47.556;18.718;2023-04-09T14:39:22;10.38;;;6.78;;